Faisalabad International Airport
OPFA : now visible

Airfield :











YOU CAN JOIN US ON...

 
LOGIN :

Register | Disclaimer

   EN    FR    IT 

 









Legend :    VFR   Marginal VFR   IFR   Intensive IFR   Very Intensive IFR
Visi :
Ceiling :
>= 8 km
>= 3000ft
5 to 8 km
1000 to 3000 ft
1500m to 5 km
500 to 1000 ft
800 to 1500m
200 to 500 ft
< 800m
< 200 ft
Symbols :   Thunderstorms  Fog  Heavy snow  Heavy precipitations  Wind > 20 kt






- Airport Elevation : 591 ft
- IATA code : LYP


OPFA - Faisalabad International

CURRENT METAR :
  • 242355Z 00000KT 4000 FU FEW040 SCT100 30/27 Q0993 NOSIG

EXPIRED METARs :
  • 242255Z 00000KT 4000 FU FEW040 SCT100 31/28 Q0993 NOSIG
  • 242155Z 00000KT 4000 FU FEW040 SCT100 31/28 Q0993 NOSIG
  • 242055Z 00000KT 4000 FU SCT040 SCT100 32/29 Q0993 TEMPO 31 015G30KT 2000 TSRA FEW030CB
  • 241955Z 23002KT 4000 FU SCT040 SCT100 32/29 Q0993 TEMPO 31015G30KT 2000 TSRA FEW030CB

TAF TAF OPFA
Valid from the 24 at 12:00 until the 25 at 18:00 UTC


241100Z 2412/2518 09006KT 4000 FU FEW040 SCT100 TX37/2510Z TN27/2500Z
TEMPO 2412/2414 36015G25KT 3000 TSRA FEW030CB SCT040 SCT100
FM241600 09004KT 4000 FU SCT040
TEMPO 2501/2504 31015G25KT 2500 TSRA FEW030CB SCT040 SCT100
OPLR FIR / Asia



MET'MAP, your aeronautical weather chart ! - Copyright ORBIFLY December 2007 - Disclaimer

ORBIFLY MET'MAP TEAM :

Programming & Development : Alexandra Zaïnal
Original concept : Baudouin d'Aumeries
Technical & hardware support : Manuel Goepfert
Assistance : Marc-Olivier Méhu




SOURCES & CREDITS :

   NOAA       Earth
Advisory